sensor_id;sensor_type;location;lat;lon;timestamp;pressure;altitude;pressure_sealevel;temperature;humidity
80482;BME280;69797;43.864;21.410;2023-07-29T00:01:51;99709.50;;;18.86;66.24
80482;BME280;69797;43.864;21.410;2023-07-29T00:04:20;99703.44;;;18.79;66.35
80482;BME280;69797;43.864;21.410;2023-07-29T00:06:47;99699.84;;;18.79;66.04
80482;BME280;69797;43.864;21.410;2023-07-29T00:09:13;99697.38;;;18.72;66.39
80482;BME280;69797;43.864;21.410;2023-07-29T00:11:40;99691.88;;;18.62;66.08
80482;BME280;69797;43.864;21.410;2023-07-29T00:14:07;99705.72;;;18.67;66.12
80482;BME280;69797;43.864;21.410;2023-07-29T00:16:34;99709.06;;;18.59;67.26
80482;BME280;69797;43.864;21.410;2023-07-29T00:19:02;99709.06;;;18.59;67.87
80482;BME280;69797;43.864;21.410;2023-07-29T00:21:29;99702.50;;;18.50;67.93
80482;BME280;69797;43.864;21.410;2023-07-29T00:23:56;99701.38;;;18.51;67.56
80482;BME280;69797;43.864;21.410;2023-07-29T00:26:24;99719.59;;;18.62;67.24
80482;BME280;69797;43.864;21.410;2023-07-29T00:28:52;99716.56;;;18.58;67.78
80482;BME280;69797;43.864;21.410;2023-07-29T00:31:19;99704.97;;;18.56;67.18
80482;BME280;69797;43.864;21.410;2023-07-29T00:33:46;99708.81;;;18.55;67.66
80482;BME280;69797;43.864;21.410;2023-07-29T00:36:12;99697.22;;;18.48;67.66
80482;BME280;69797;43.864;21.410;2023-07-29T00:38:39;99695.56;;;18.47;69.11
80482;BME280;69797;43.864;21.410;2023-07-29T00:41:06;99701.66;;;18.49;68.06
80482;BME280;69797;43.864;21.410;2023-07-29T00:43:33;99692.00;;;18.41;68.53
80482;BME280;69797;43.864;21.410;2023-07-29T00:46:00;99698.13;;;18.38;69.02
80482;BME280;69797;43.864;21.410;2023-07-29T00:48:27;99709.47;;;18.37;68.79
80482;BME280;69797;43.864;21.410;2023-07-29T00:50:54;99692.94;;;18.27;69.19
80482;BME280;69797;43.864;21.410;2023-07-29T00:53:21;99700.94;;;18.28;68.39
80482;BME280;69797;43.864;21.410;2023-07-29T00:55:48;99696.53;;;18.22;71.04
80482;BME280;69797;43.864;21.410;2023-07-29T00:58:15;99701.00;;;18.18;68.96
80482;BME280;69797;43.864;21.410;2023-07-29T01:00:42;99700.47;;;18.16;69.46
80482;BME280;69797;43.864;21.410;2023-07-29T01:03:09;99701.56;;;18.15;69.36
80482;BME280;69797;43.864;21.410;2023-07-29T01:05:46;99708.69;;;18.26;69.76
80482;BME280;69797;43.864;21.410;2023-07-29T01:13:43;99709.53;;;18.32;68.22
80482;BME280;69797;43.864;21.410;2023-07-29T01:16:21;99712.00;;;18.33;67.73
80482;BME280;69797;43.864;21.410;2023-07-29T01:18:52;99722.53;;;18.36;68.75
80482;BME280;69797;43.864;21.410;2023-07-29T01:21:21;99719.75;;;18.36;69.05
80482;BME280;69797;43.864;21.410;2023-07-29T01:23:52;99713.13;;;18.32;69.30
80482;BME280;69797;43.864;21.410;2023-07-29T01:26:19;99706.44;;;18.33;69.64
80482;BME280;69797;43.864;21.410;2023-07-29T01:28:46;99703.97;;;18.32;69.50
80482;BME280;69797;43.864;21.410;2023-07-29T01:31:17;99712.28;;;18.32;69.22
80482;BME280;69797;43.864;21.410;2023-07-29T01:33:58;99704.03;;;18.21;69.01
80482;BME280;69797;43.864;21.410;2023-07-29T01:36:28;99729.22;;;18.30;69.28
80482;BME280;69797;43.864;21.410;2023-07-29T01:38:56;99719.56;;;18.17;69.90
80482;BME280;69797;43.864;21.410;2023-07-29T01:41:24;99709.91;;;18.05;69.23
80482;BME280;69797;43.864;21.410;2023-07-29T01:43:52;99737.03;;;18.18;69.21
80482;BME280;69797;43.864;21.410;2023-07-29T01:46:20;99730.41;;;18.14;70.00
80482;BME280;69797;43.864;21.410;2023-07-29T01:48:46;99708.81;;;18.01;70.82
80482;BME280;69797;43.864;21.410;2023-07-29T01:51:14;99713.56;;;17.95;70.07
80482;BME280;69797;43.864;21.410;2023-07-29T01:53:41;99711.09;;;17.73;68.90
80482;BME280;69797;43.864;21.410;2023-07-29T01:56:07;99718.88;;;17.66;69.96
80482;BME280;69797;43.864;21.410;2023-07-29T01:58:34;99720.53;;;17.57;69.75
80482;BME280;69797;43.864;21.410;2023-07-29T02:01:01;99729.13;;;17.60;69.72
80482;BME280;69797;43.864;21.410;2023-07-29T02:03:28;99725.53;;;17.55;70.01
80482;BME280;69797;43.864;21.410;2023-07-29T02:05:54;99717.78;;;17.46;71.21
80482;BME280;69797;43.864;21.410;2023-07-29T02:08:21;99727.75;;;17.47;71.84
80482;BME280;69797;43.864;21.410;2023-07-29T02:10:48;99719.47;;;17.37;71.79
80482;BME280;69797;43.864;21.410;2023-07-29T02:13:15;99725.03;;;17.37;71.84
80482;BME280;69797;43.864;21.410;2023-07-29T02:15:42;99713.38;;;17.35;71.93
80482;BME280;69797;43.864;21.410;2023-07-29T02:18:09;99721.66;;;17.50;72.33
80482;BME280;69797;43.864;21.410;2023-07-29T02:20:36;99713.09;;;17.52;71.32
80482;BME280;69797;43.864;21.410;2023-07-29T02:23:02;99718.06;;;17.55;71.30
80482;BME280;69797;43.864;21.410;2023-07-29T02:25:29;99721.91;;;17.64;71.32
80482;BME280;69797;43.864;21.410;2023-07-29T02:27:56;99719.97;;;17.65;73.08
80482;BME280;69797;43.864;21.410;2023-07-29T02:30:23;99736.59;;;17.80;72.90
80482;BME280;69797;43.864;21.410;2023-07-29T02:32:49;99736.03;;;17.88;71.45
80482;BME280;69797;43.864;21.410;2023-07-29T02:35:17;99722.47;;;17.82;70.28
80482;BME280;69797;43.864;21.410;2023-07-29T02:37:43;99722.44;;;17.92;70.04
80482;BME280;69797;43.864;21.410;2023-07-29T02:40:11;99719.09;;;17.90;69.24
80482;BME280;69797;43.864;21.410;2023-07-29T02:42:37;99734.09;;;17.89;69.28
80482;BME280;69797;43.864;21.410;2023-07-29T02:45:05;99737.69;;;17.79;68.87
80482;BME280;69797;43.864;21.410;2023-07-29T02:47:37;99741.59;;;17.63;70.60
80482;BME280;69797;43.864;21.410;2023-07-29T02:50:05;99742.44;;;17.53;70.62
80482;BME280;69797;43.864;21.410;2023-07-29T02:52:31;99737.72;;;17.43;72.17
80482;BME280;69797;43.864;21.410;2023-07-29T02:54:58;99729.44;;;17.23;73.66
80482;BME280;69797;43.864;21.410;2023-07-29T02:57:25;99732.75;;;17.25;73.95
80482;BME280;69797;43.864;21.410;2023-07-29T02:59:52;99718.38;;;17.23;72.71
80482;BME280;69797;43.864;21.410;2023-07-29T03:02:19;99717.25;;;17.24;74.32
80482;BME280;69797;43.864;21.410;2023-07-29T03:04:47;99723.06;;;17.27;73.71
80482;BME280;69797;43.864;21.410;2023-07-29T03:07:14;99721.16;;;17.23;74.58
80482;BME280;69797;43.864;21.410;2023-07-29T03:09:41;99723.66;;;17.19;72.53
80482;BME280;69797;43.864;21.410;2023-07-29T03:12:08;99727.50;;;17.23;73.44
80482;BME280;69797;43.864;21.410;2023-07-29T03:14:35;99721.69;;;17.20;72.66
80482;BME280;69797;43.864;21.410;2023-07-29T03:17:03;99721.16;;;17.23;74.04
80482;BME280;69797;43.864;21.410;2023-07-29T03:19:31;99711.44;;;17.10;75.06
80482;BME280;69797;43.864;21.410;2023-07-29T03:21:58;99718.38;;;17.08;74.95
80482;BME280;69797;43.864;21.410;2023-07-29T03:24:24;99737.75;;;17.13;73.17
80482;BME280;69797;43.864;21.410;2023-07-29T03:26:51;99718.09;;;16.99;73.41
80482;BME280;69797;43.864;21.410;2023-07-29T03:29:18;99730.25;;;17.08;73.24
80482;BME280;69797;43.864;21.410;2023-07-29T03:31:44;99728.31;;;17.19;73.50
80482;BME280;69797;43.864;21.410;2023-07-29T03:34:11;99744.41;;;17.37;73.34
80482;BME280;69797;43.864;21.410;2023-07-29T03:36:39;99720.56;;;17.36;72.96
80482;BME280;69797;43.864;21.410;2023-07-29T03:39:06;99747.66;;;17.85;73.11
80482;BME280;69797;43.864;21.410;2023-07-29T03:41:34;99747.00;;;18.24;71.84
80482;BME280;69797;43.864;21.410;2023-07-29T03:44:01;99742.09;;;18.55;70.78
80482;BME280;69797;43.864;21.410;2023-07-29T03:46:27;99718.69;;;18.82;69.93
80482;BME280;69797;43.864;21.410;2023-07-29T03:48:54;99738.53;;;19.33;68.16
80482;BME280;69797;43.864;21.410;2023-07-29T03:51:21;99734.94;;;19.67;66.67
80482;BME280;69797;43.864;21.410;2023-07-29T03:53:48;99737.16;;;20.18;65.86
80482;BME280;69797;43.864;21.410;2023-07-29T03:56:15;99732.53;;;20.75;63.74
80482;BME280;69797;43.864;21.410;2023-07-29T03:58:43;99739.13;;;21.36;62.01
80482;BME280;69797;43.864;21.410;2023-07-29T04:01:10;99716.28;;;21.80;60.66
80482;BME280;69797;43.864;21.410;2023-07-29T04:03:37;99720.63;;;22.42;59.03
80482;BME280;69797;43.864;21.410;2023-07-29T04:06:04;99736.50;;;23.19;57.81
80482;BME280;69797;43.864;21.410;2023-07-29T04:08:31;99747.03;;;23.98;56.11
80482;BME280;69797;43.864;21.410;2023-07-29T04:10:58;99740.84;;;24.67;54.38
80482;BME280;69797;43.864;21.410;2023-07-29T04:13:25;99730.19;;;25.30;53.87
80482;BME280;69797;43.864;21.410;2023-07-29T04:15:51;99757.72;;;26.10;52.61
80482;BME280;69797;43.864;21.410;2023-07-29T04:18:18;99764.94;;;26.87;50.70
80482;BME280;69797;43.864;21.410;2023-07-29T04:20:45;99755.59;;;27.58;50.81
80482;BME280;69797;43.864;21.410;2023-07-29T04:23:31;99757.38;;;28.33;47.16
80482;BME280;69797;43.864;21.410;2023-07-29T04:25:57;99747.63;;;28.79;48.10
80482;BME280;69797;43.864;21.410;2023-07-29T04:28:24;99758.16;;;29.47;47.25
80482;BME280;69797;43.864;21.410;2023-07-29T04:30:51;99750.91;;;30.06;46.58
80482;BME280;69797;43.864;21.410;2023-07-29T04:33:18;99765.66;;;30.78;46.40
80482;BME280;69797;43.864;21.410;2023-07-29T04:35:45;99756.38;;;31.33;44.75
80482;BME280;69797;43.864;21.410;2023-07-29T04:38:12;99749.34;;;31.65;43.37
80482;BME280;69797;43.864;21.410;2023-07-29T04:40:38;99744.47;;;31.85;42.48
80482;BME280;69797;43.864;21.410;2023-07-29T04:43:05;99748.63;;;31.49;40.97
80482;BME280;69797;43.864;21.410;2023-07-29T04:45:32;99743.63;;;30.52;42.72
80482;BME280;69797;43.864;21.410;2023-07-29T04:47:59;99760.28;;;29.94;44.22
80482;BME280;69797;43.864;21.410;2023-07-29T04:50:26;99752.47;;;30.03;44.69
80482;BME280;69797;43.864;21.410;2023-07-29T04:52:53;99760.94;;;30.51;45.18
80482;BME280;69797;43.864;21.410;2023-07-29T04:55:19;99746.13;;;31.09;43.27
80482;BME280;69797;43.864;21.410;2023-07-29T04:57:46;99761.22;;;31.32;42.78
80482;BME280;69797;43.864;21.410;2023-07-29T05:00:13;99763.34;;;31.58;43.05
80482;BME280;69797;43.864;21.410;2023-07-29T05:02:40;99750.53;;;32.30;40.95
80482;BME280;69797;43.864;21.410;2023-07-29T05:05:07;99764.25;;;33.00;41.66
80482;BME280;69797;43.864;21.410;2023-07-29T05:07:34;99750.31;;;33.52;40.30
80482;BME280;69797;43.864;21.410;2023-07-29T05:10:01;99746.44;;;34.04;38.20
80482;BME280;69797;43.864;21.410;2023-07-29T05:12:28;99740.56;;;34.27;38.15
80482;BME280;69797;43.864;21.410;2023-07-29T05:14:56;99759.56;;;34.60;38.75
80482;BME280;69797;43.864;21.410;2023-07-29T05:17:22;99758.53;;;34.94;38.72
80482;BME280;69797;43.864;21.410;2023-07-29T05:19:49;99748.25;;;35.48;37.18
80482;BME280;69797;43.864;21.410;2023-07-29T05:22:16;99755.75;;;36.06;37.77
80482;BME280;69797;43.864;21.410;2023-07-29T05:24:42;99761.09;;;36.61;36.58
80482;BME280;69797;43.864;21.410;2023-07-29T05:27:09;99768.78;;;36.75;35.63
80482;BME280;69797;43.864;21.410;2023-07-29T05:29:36;99764.69;;;37.05;35.53
80482;BME280;69797;43.864;21.410;2023-07-29T05:32:03;99772.06;;;36.84;34.68
80482;BME280;69797;43.864;21.410;2023-07-29T05:34:30;99754.84;;;35.70;34.04
80482;BME280;69797;43.864;21.410;2023-07-29T05:36:57;99767.47;;;34.41;36.36
80482;BME280;69797;43.864;21.410;2023-07-29T05:39:23;99776.66;;;33.49;37.47
80482;BME280;69797;43.864;21.410;2023-07-29T05:41:50;99775.53;;;33.27;38.29
80482;BME280;69797;43.864;21.410;2023-07-29T05:44:17;99786.47;;;33.55;38.44
80482;BME280;69797;43.864;21.410;2023-07-29T05:46:44;99775.31;;;33.73;36.76
80482;BME280;69797;43.864;21.410;2023-07-29T05:49:11;99783.44;;;33.71;36.77
80482;BME280;69797;43.864;21.410;2023-07-29T05:51:40;99780.41;;;33.26;36.57
80482;BME280;69797;43.864;21.410;2023-07-29T05:54:06;99794.22;;;32.75;36.86
80482;BME280;69797;43.864;21.410;2023-07-29T05:56:33;99785.69;;;32.48;37.30
80482;BME280;69797;43.864;21.410;2023-07-29T05:59:00;99792.63;;;33.00;37.95
80482;BME280;69797;43.864;21.410;2023-07-29T06:01:27;99788.00;;;33.49;37.45
80482;BME280;69797;43.864;21.410;2023-07-29T06:04:12;99799.38;;;34.20;35.39
80482;BME280;69797;43.864;21.410;2023-07-29T06:06:39;99788.59;;;34.91;36.54
80482;BME280;69797;43.864;21.410;2023-07-29T06:09:06;99788.91;;;35.41;35.88
80482;BME280;69797;43.864;21.410;2023-07-29T06:11:32;99792.28;;;35.61;35.48
80482;BME280;69797;43.864;21.410;2023-07-29T06:13:59;99772.63;;;35.42;34.38
80482;BME280;69797;43.864;21.410;2023-07-29T06:16:26;99785.91;;;35.13;34.56
80482;BME280;69797;43.864;21.410;2023-07-29T06:18:53;99784.47;;;34.85;35.40
80482;BME280;69797;43.864;21.410;2023-07-29T06:21:19;99785.16;;;34.60;35.25
80482;BME280;69797;43.864;21.410;2023-07-29T06:23:47;99798.75;;;34.92;34.99
80482;BME280;69797;43.864;21.410;2023-07-29T06:26:14;99785.31;;;34.85;35.22
80482;BME280;69797;43.864;21.410;2023-07-29T06:28:41;99792.66;;;34.90;34.95
80482;BME280;69797;43.864;21.410;2023-07-29T06:31:08;99797.66;;;35.04;34.58
80482;BME280;69797;43.864;21.410;2023-07-29T06:33:34;99806.09;;;34.93;34.34
80482;BME280;69797;43.864;21.410;2023-07-29T06:36:01;99800.38;;;34.86;34.60
80482;BME280;69797;43.864;21.410;2023-07-29T06:38:28;99802.03;;;34.94;34.64
80482;BME280;69797;43.864;21.410;2023-07-29T06:40:55;99799.75;;;35.11;33.89
80482;BME280;69797;43.864;21.410;2023-07-29T06:43:22;99813.84;;;34.96;34.19
80482;BME280;69797;43.864;21.410;2023-07-29T06:45:48;99800.66;;;35.29;33.37
80482;BME280;69797;43.864;21.410;2023-07-29T06:48:15;99804.81;;;34.83;33.66
80482;BME280;69797;43.864;21.410;2023-07-29T06:50:42;99790.03;;;34.64;34.01
80482;BME280;69797;43.864;21.410;2023-07-29T06:53:09;99798.81;;;34.99;33.43
80482;BME280;69797;43.864;21.410;2023-07-29T06:55:36;99782.47;;;34.82;32.48
80482;BME280;69797;43.864;21.410;2023-07-29T06:58:02;99770.81;;;34.50;33.60
80482;BME280;69797;43.864;21.410;2023-07-29T07:00:29;99787.56;;;34.14;33.40
80482;BME280;69797;43.864;21.410;2023-07-29T07:02:56;99788.41;;;33.47;34.81
80482;BME280;69797;43.864;21.410;2023-07-29T07:05:23;99792.44;;;33.80;34.70
80482;BME280;69797;43.864;21.410;2023-07-29T07:07:50;99785.94;;;34.57;34.45
80482;BME280;69797;43.864;21.410;2023-07-29T07:10:16;99785.69;;;34.84;34.27
80482;BME280;69797;43.864;21.410;2023-07-29T07:12:43;99777.38;;;35.13;33.18
80482;BME280;69797;43.864;21.410;2023-07-29T07:15:10;99782.66;;;35.11;33.06
80482;BME280;69797;43.864;21.410;2023-07-29T07:17:37;99770.88;;;34.12;33.72
80482;BME280;69797;43.864;21.410;2023-07-29T07:20:05;99761.59;;;33.14;34.18
80482;BME280;69797;43.864;21.410;2023-07-29T07:22:32;99787.13;;;32.38;35.22
80482;BME280;69797;43.864;21.410;2023-07-29T07:24:59;99780.66;;;31.34;35.88
80482;BME280;69797;43.864;21.410;2023-07-29T07:27:25;99793.94;;;30.63;37.60
80482;BME280;69797;43.864;21.410;2023-07-29T07:29:52;99778.25;;;30.33;37.89
80482;BME280;69797;43.864;21.410;2023-07-29T07:32:19;99766.31;;;30.40;38.18
80482;BME280;69797;43.864;21.410;2023-07-29T07:34:45;99785.13;;;30.48;38.11
80482;BME280;69797;43.864;21.410;2023-07-29T07:37:12;99786.13;;;30.56;38.03
80482;BME280;69797;43.864;21.410;2023-07-29T07:39:39;99785.31;;;30.91;38.05
80482;BME280;69797;43.864;21.410;2023-07-29T07:42:06;99780.50;;;31.46;37.60
80482;BME280;69797;43.864;21.410;2023-07-29T07:44:33;99776.03;;;31.64;37.25
80482;BME280;69797;43.864;21.410;2023-07-29T07:46:59;99790.53;;;31.24;37.66
80482;BME280;69797;43.864;21.410;2023-07-29T07:49:31;99764.63;;;30.87;38.28
80482;BME280;69797;43.864;21.410;2023-07-29T07:51:58;99771.44;;;31.01;38.08
80482;BME280;69797;43.864;21.410;2023-07-29T07:54:25;99773.00;;;30.99;37.97
80482;BME280;69797;43.864;21.410;2023-07-29T07:56:51;99788.41;;;31.01;38.51
80482;BME280;69797;43.864;21.410;2023-07-29T07:59:18;99771.88;;;30.84;38.35
80482;BME280;69797;43.864;21.410;2023-07-29T08:01:45;99769.56;;;30.90;38.77
80482;BME280;69797;43.864;21.410;2023-07-29T08:04:12;99779.19;;;30.53;38.78
80482;BME280;69797;43.864;21.410;2023-07-29T08:06:39;99773.06;;;30.51;39.93
80482;BME280;69797;43.864;21.410;2023-07-29T08:09:05;99790.97;;;31.06;39.36
80482;BME280;69797;43.864;21.410;2023-07-29T08:11:32;99770.94;;;31.93;39.13
80482;BME280;69797;43.864;21.410;2023-07-29T08:13:59;99760.19;;;32.75;38.46
80482;BME280;69797;43.864;21.410;2023-07-29T08:16:26;99768.31;;;33.33;37.35
80482;BME280;69797;43.864;21.410;2023-07-29T08:18:53;99759.75;;;33.59;37.13
80482;BME280;69797;43.864;21.410;2023-07-29T08:21:19;99777.88;;;33.81;36.98
80482;BME280;69797;43.864;21.410;2023-07-29T08:23:46;99770.63;;;33.91;36.63
80482;BME280;69797;43.864;21.410;2023-07-29T08:26:13;99753.75;;;34.05;36.34
80482;BME280;69797;43.864;21.410;2023-07-29T08:28:40;99769.00;;;33.90;35.59
80482;BME280;69797;43.864;21.410;2023-07-29T08:31:06;99763.78;;;32.98;36.33
80482;BME280;69797;43.864;21.410;2023-07-29T08:33:34;99758.63;;;32.28;36.80
80482;BME280;69797;43.864;21.410;2023-07-29T08:36:02;99756.41;;;31.75;38.23
80482;BME280;69797;43.864;21.410;2023-07-29T08:38:29;99753.28;;;31.38;38.49
80482;BME280;69797;43.864;21.410;2023-07-29T08:41:19;99745.81;;;30.94;39.24
80482;BME280;69797;43.864;21.410;2023-07-29T08:44:11;99756.53;;;31.40;39.65
80482;BME280;69797;43.864;21.410;2023-07-29T08:46:39;99741.66;;;32.08;38.98
80482;BME280;69797;43.864;21.410;2023-07-29T08:49:07;99747.41;;;32.88;38.71
80482;BME280;69797;43.864;21.410;2023-07-29T08:51:34;99727.25;;;33.53;37.63
80482;BME280;69797;43.864;21.410;2023-07-29T08:54:02;99733.53;;;34.10;37.50
80482;BME280;69797;43.864;21.410;2023-07-29T08:56:29;99739.00;;;34.92;36.39
80482;BME280;69797;43.864;21.410;2023-07-29T08:58:57;99743.44;;;35.70;35.71
80482;BME280;69797;43.864;21.410;2023-07-29T09:01:25;99742.31;;;36.10;35.25
80482;BME280;69797;43.864;21.410;2023-07-29T09:03:52;99735.41;;;36.08;34.59
80482;BME280;69797;43.864;21.410;2023-07-29T09:06:19;99740.69;;;36.06;34.65
80482;BME280;69797;43.864;21.410;2023-07-29T09:08:49;99731.75;;;36.14;33.46
80482;BME280;69797;43.864;21.410;2023-07-29T09:11:17;99738.66;;;36.06;33.99
80482;BME280;69797;43.864;21.410;2023-07-29T09:13:44;99733.75;;;36.03;34.33
80482;BME280;69797;43.864;21.410;2023-07-29T09:16:11;99743.16;;;36.25;33.60
80482;BME280;69797;43.864;21.410;2023-07-29T09:18:38;99737.84;;;36.27;33.63
80482;BME280;69797;43.864;21.410;2023-07-29T09:21:05;99727.56;;;35.69;33.44
80482;BME280;69797;43.864;21.410;2023-07-29T09:23:42;99726.91;;;35.09;34.14
80482;BME280;69797;43.864;21.410;2023-07-29T09:26:09;99735.22;;;34.74;34.64
80482;BME280;69797;43.864;21.410;2023-07-29T09:28:38;99714.91;;;34.20;34.82
80482;BME280;69797;43.864;21.410;2023-07-29T09:31:05;99739.38;;;33.91;34.74
80482;BME280;69797;43.864;21.410;2023-07-29T09:33:35;99719.72;;;33.72;35.99
80482;BME280;69797;43.864;21.410;2023-07-29T09:36:08;99731.06;;;33.38;35.95
80482;BME280;69797;43.864;21.410;2023-07-29T09:38:36;99731.94;;;32.82;36.45
80482;BME280;69797;43.864;21.410;2023-07-29T09:41:03;99732.63;;;32.48;37.08
80482;BME280;69797;43.864;21.410;2023-07-29T09:43:31;99741.59;;;32.51;36.90
80482;BME280;69797;43.864;21.410;2023-07-29T09:46:03;99719.41;;;32.56;36.87
80482;BME280;69797;43.864;21.410;2023-07-29T09:48:34;99719.84;;;32.85;36.91
80482;BME280;69797;43.864;21.410;2023-07-29T09:51:15;99741.59;;;33.04;36.83
80482;BME280;69797;43.864;21.410;2023-07-29T09:53:46;99739.56;;;33.04;36.37
80482;BME280;69797;43.864;21.410;2023-07-29T09:56:14;99731.97;;;33.12;35.85
80482;BME280;69797;43.864;21.410;2023-07-29T09:58:45;99729.63;;;33.17;35.40
80482;BME280;69797;43.864;21.410;2023-07-29T10:01:15;99724.44;;;33.27;36.00
80482;BME280;69797;43.864;21.410;2023-07-29T10:03:42;99731.88;;;33.35;35.62
80482;BME280;69797;43.864;21.410;2023-07-29T10:06:11;99712.22;;;33.23;35.60
80482;BME280;69797;43.864;21.410;2023-07-29T10:08:39;99727.53;;;33.14;35.82
80482;BME280;69797;43.864;21.410;2023-07-29T10:11:07;99713.72;;;32.83;35.72
80482;BME280;69797;43.864;21.410;2023-07-29T10:13:35;99707.00;;;32.41;36.39
80482;BME280;69797;43.864;21.410;2023-07-29T10:16:03;99707.78;;;32.15;35.53
80482;BME280;69797;43.864;21.410;2023-07-29T10:18:32;99720.84;;;31.97;36.64
80482;BME280;69797;43.864;21.410;2023-07-29T10:21:00;99707.06;;;31.76;36.85
80482;BME280;69797;43.864;21.410;2023-07-29T10:23:34;99694.84;;;31.49;36.81
80482;BME280;69797;43.864;21.410;2023-07-29T10:26:05;99704.97;;;31.30;35.40
80482;BME280;69797;43.864;21.410;2023-07-29T10:28:32;99697.97;;;31.05;36.21
80482;BME280;69797;43.864;21.410;2023-07-29T10:31:02;99682.28;;;30.72;36.00
80482;BME280;69797;43.864;21.410;2023-07-29T10:33:31;99679.88;;;30.55;36.78
80482;BME280;69797;43.864;21.410;2023-07-29T10:36:00;99681.47;;;30.37;36.64
80482;BME280;69797;43.864;21.410;2023-07-29T10:38:27;99687.13;;;30.37;37.35
80482;BME280;69797;43.864;21.410;2023-07-29T10:40:56;99683.41;;;30.32;37.87
80482;BME280;69797;43.864;21.410;2023-07-29T10:43:32;99684.75;;;30.39;37.42
80482;BME280;69797;43.864;21.410;2023-07-29T10:46:17;99689.22;;;30.40;38.44
80482;BME280;69797;43.864;21.410;2023-07-29T10:48:55;99663.44;;;30.25;37.75
80482;BME280;69797;43.864;21.410;2023-07-29T10:51:29;99680.66;;;30.36;37.77
80482;BME280;69797;43.864;21.410;2023-07-29T10:53:58;99677.09;;;30.39;37.66
80482;BME280;69797;43.864;21.410;2023-07-29T10:56:35;99674.81;;;30.45;38.09
80482;BME280;69797;43.864;21.410;2023-07-29T11:01:40;99652.69;;;30.31;37.60
80482;BME280;69797;43.864;21.410;2023-07-29T11:12:49;99633.38;;;30.01;36.52
80482;BME280;69797;43.864;21.410;2023-07-29T11:15:26;99638.69;;;30.03;36.52
80482;BME280;69797;43.864;21.410;2023-07-29T11:18:03;99633.94;;;30.07;37.20
80482;BME280;69797;43.864;21.410;2023-07-29T11:20:31;99627.53;;;30.10;37.41
80482;BME280;69797;43.864;21.410;2023-07-29T11:23:00;99627.75;;;30.17;36.90
80482;BME280;69797;43.864;21.410;2023-07-29T11:25:29;99647.13;;;30.34;36.76
80482;BME280;69797;43.864;21.410;2023-07-29T11:27:58;99630.19;;;30.34;37.07
80482;BME280;69797;43.864;21.410;2023-07-29T11:30:28;99641.00;;;30.48;36.19
80482;BME280;69797;43.864;21.410;2023-07-29T11:32:58;99620.81;;;30.50;35.57
80482;BME280;69797;43.864;21.410;2023-07-29T11:35:25;99627.53;;;30.61;35.35
80482;BME280;69797;43.864;21.410;2023-07-29T11:37:54;99638.97;;;30.68;35.81
80482;BME280;69797;43.864;21.410;2023-07-29T11:40:23;99614.06;;;30.54;36.31
80482;BME280;69797;43.864;21.410;2023-07-29T11:42:51;99610.41;;;30.54;35.33
80482;BME280;69797;43.864;21.410;2023-07-29T11:45:20;99621.94;;;30.65;35.81
80482;BME280;69797;43.864;21.410;2023-07-29T11:47:52;99620.66;;;30.62;35.72
80482;BME280;69797;43.864;21.410;2023-07-29T11:50:19;99618.84;;;30.70;35.38
80482;BME280;69797;43.864;21.410;2023-07-29T11:52:46;99600.00;;;30.58;35.61
80482;BME280;69797;43.864;21.410;2023-07-29T11:55:14;99611.91;;;30.67;34.82
80482;BME280;69797;43.864;21.410;2023-07-29T11:57:42;99610.91;;;30.75;34.46
80482;BME280;69797;43.864;21.410;2023-07-29T12:00:11;99571.44;;;30.63;33.32
80482;BME280;69797;43.864;21.410;2023-07-29T12:02:40;99600.41;;;30.95;33.89
80482;BME280;69797;43.864;21.410;2023-07-29T12:05:09;99596.38;;;30.96;33.89
80482;BME280;69797;43.864;21.410;2023-07-29T12:07:40;99586.88;;;30.85;33.93
80482;BME280;69797;43.864;21.410;2023-07-29T12:10:08;99590.81;;;30.80;32.84
80482;BME280;69797;43.864;21.410;2023-07-29T12:12:44;99577.03;;;30.79;33.19
80482;BME280;69797;43.864;21.410;2023-07-29T12:15:11;99582.63;;;30.75;31.00
80482;BME280;69797;43.864;21.410;2023-07-29T12:17:41;99590.38;;;30.78;33.58
80482;BME280;69797;43.864;21.410;2023-07-29T12:20:09;99573.53;;;30.66;33.45
80482;BME280;69797;43.864;21.410;2023-07-29T12:22:37;99583.19;;;30.65;33.00
80482;BME280;69797;43.864;21.410;2023-07-29T12:25:04;99578.28;;;30.62;33.35
80482;BME280;69797;43.864;21.410;2023-07-29T12:27:31;99596.97;;;30.67;33.93
80482;BME280;69797;43.864;21.410;2023-07-29T12:30:01;99583.50;;;30.60;31.49
80482;BME280;69797;43.864;21.410;2023-07-29T12:32:30;99584.06;;;30.69;33.48
80482;BME280;69797;43.864;21.410;2023-07-29T12:34:57;99575.59;;;30.69;32.20
80482;BME280;69797;43.864;21.410;2023-07-29T12:37:31;99562.31;;;30.70;31.19
80482;BME280;69797;43.864;21.410;2023-07-29T12:39:59;99567.75;;;30.78;33.33
80482;BME280;69797;43.864;21.410;2023-07-29T12:42:26;99568.94;;;30.77;32.42
80482;BME280;69797;43.864;21.410;2023-07-29T12:44:53;99566.00;;;30.74;32.51
80482;BME280;69797;43.864;21.410;2023-07-29T12:47:19;99572.28;;;30.83;32.73
80482;BME280;69797;43.864;21.410;2023-07-29T12:49:46;99563.03;;;30.86;33.07
80482;BME280;69797;43.864;21.410;2023-07-29T12:52:13;99553.59;;;30.78;33.03
80482;BME280;69797;43.864;21.410;2023-07-29T12:54:40;99566.34;;;30.88;33.25
80482;BME280;69797;43.864;21.410;2023-07-29T12:57:08;99559.72;;;30.80;32.90
80482;BME280;69797;43.864;21.410;2023-07-29T12:59:35;99546.16;;;30.70;33.21
80482;BME280;69797;43.864;21.410;2023-07-29T13:02:02;99551.34;;;30.68;33.57
80482;BME280;69797;43.864;21.410;2023-07-29T13:04:32;99550.94;;;30.66;33.13
80482;BME280;69797;43.864;21.410;2023-07-29T13:06:59;99536.19;;;30.57;34.05
80482;BME280;69797;43.864;21.410;2023-07-29T13:09:26;99554.78;;;30.58;33.55
80482;BME280;69797;43.864;21.410;2023-07-29T13:11:53;99565.06;;;30.66;33.89